Time;durP1;ratioP1;P1;durP2;ratioP2;P2;SDS_P1;SDS_P2;PMS_P1;PMS_P2;Temp;Humidity;BMP_temperature;BMP_pressure;BME280_temperature;BME280_humidity;BME280_pressure;Samples;Min_cycle;Max_cycle;Signal;HPM_P1;HPM_P2
2024/01/30 00:02:07;;;;;;;;;;;;;;;;;;5073632;28;19916;-84
2024/01/30 00:04:32;;;;;;;;;;;;;;;;;;5074820;28;20014;-84
2024/01/30 00:06:58;;;;;;;;;;;;;;;;;;5072405;28;20145;-84
2024/01/30 00:09:24;;;;;;;;;;;;;;;;;;5072199;28;20275;-84
2024/01/30 00:11:50;;;;;;;;;;;;;;;;;;5064343;28;19974;-84
2024/01/30 00:14:16;;;;;;;;;;;;;;;;;;5071861;28;20106;-84
2024/01/30 00:16:42;;;;;;;;;;;;;;;;;;5071475;28;20328;-84
2024/01/30 00:19:08;;;;;;;;;;;;;;;;;;5071668;28;20280;-84
2024/01/30 00:21:34;;;;;;;;;;;;;;;;;;5071036;28;19916;-84
2024/01/30 00:24:00;;;;;;;;;;;;;;;;;;5071406;28;19935;-84
2024/01/30 00:26:25;;;;;;;;;;;;;;;;;;5068224;28;19951;-83
2024/01/30 00:28:51;;;;;;;;;;;;;;;;;;5068531;28;19923;-84
2024/01/30 00:31:17;;;;;;;;;;;;;;;;;;5071548;28;19913;-84
2024/01/30 00:33:43;;;;;;;;;;;;;;;;;;5071930;28;19955;-84
2024/01/30 00:36:09;;;;;;;;;;;;;;;;;;5071286;28;20428;-84
2024/01/30 00:38:35;;;;;;;;;;;;;;;;;;5071577;28;20147;-83
2024/01/30 00:41:01;;;;;;;;;;;;;;;;;;5071285;28;19923;-84
2024/01/30 00:43:27;;;;;;;;;;;;;;;;;;5070032;28;19917;-84
2024/01/30 00:45:53;;;;;;;;;;;;;;;;;;5071210;28;19920;-84
2024/01/30 00:48:19;;;;;;;;;;;;;;;;;;5070774;28;19970;-83
2024/01/30 00:50:45;;;;;;;;;;;;;;;;;;5067788;28;19916;-83
2024/01/30 00:53:11;;;;;;;;;;;;;;;;;;5071353;28;19916;-83
2024/01/30 00:55:37;;;;;;;;;;;;;;;;;;5070813;28;19948;-83
2024/01/30 00:58:03;;;;;;;;;;;;;;;;;;5069642;28;19920;-82
2024/01/30 01:00:29;;;;;;;;;;;;;;;;;;5070876;28;19961;-84
2024/01/30 01:02:55;;;;;;;;;;;;;;;;;;5071102;28;19966;-83
2024/01/30 01:05:20;;;;;;;;;;;;;;;;;;5071765;28;20415;-85
2024/01/30 01:07:48;;;;;;;;;;;;;;;;;;5071127;28;20342;-85
2024/01/30 01:10:13;;;;;;;;;;;;;;;;;;5071842;28;19920;-85
2024/01/30 01:12:39;;;;;;;;;;;;;;;;;;5071181;28;20030;-85
2024/01/30 01:15:05;;;;;;;;;;;;;;;;;;5071174;28;20003;-85
2024/01/30 01:17:31;;;;;;;;;;;;;;;;;;5073398;28;19920;-85
2024/01/30 01:19:57;;;;;;;;;;;;;;;;;;5073449;28;19912;-84
2024/01/30 01:22:23;;;;;;;;;;;;;;;;;;5073008;28;20001;-85
2024/01/30 01:24:48;;;;;;;;;;;;;;;;;;5072177;28;19932;-85
2024/01/30 01:27:14;;;;;;;;;;;;;;;;;;5073456;28;20627;-85
2024/01/30 01:29:40;;;;;;;;;;;;;;;;;;5072451;28;20333;-85
2024/01/30 01:32:06;;;;;;;;;;;;;;;;;;5072687;28;19916;-85
2024/01/30 01:34:32;;;;;;;;;;;;;;;;;;5069583;28;19913;-85
2024/01/30 01:36:58;;;;;;;;;;;;;;;;;;5073037;28;19943;-84
2024/01/30 01:39:24;;;;;;;;;;;;;;;;;;5073754;28;19913;-85
2024/01/30 01:41:50;;;;;;;;;;;;;;;;;;5072354;28;20640;-85
2024/01/30 01:44:15;;;;;;;;;;;;;;;;;;5074198;28;19921;-85
2024/01/30 01:46:41;;;;;;;;;;;;;;;;;;5076403;28;19917;-84
2024/01/30 01:49:07;;;;;;;;;;;;;;;;;;5074013;28;19919;-85
2024/01/30 01:51:33;;;;;;;;;;;;;;;;;;5077470;28;19984;-85
2024/01/30 01:53:59;;;;;;;;;;;;;;;;;;5076222;28;19951;-83
2024/01/30 01:56:25;;;;;;;;;;;;;;;;;;5075285;28;19963;-84
2024/01/30 01:58:51;;;;;;;;;;;;;;;;;;5073555;28;19970;-85
2024/01/30 02:01:17;;;;;;;;;;;;;;;;;;5076468;28;19917;-85
2024/01/30 02:03:43;;;;;;;;;;;;;;;;;;5082792;28;19916;-85
2024/01/30 02:06:08;;;;;;;;;;;;;;;;;;5074467;28;19928;-85
2024/01/30 02:08:34;;;;;;;;;;;;;;;;;;5071202;28;19956;-85
2024/01/30 02:11:00;;;;;;;;;;;;;;;;;;5068980;28;19912;-85
2024/01/30 02:13:26;;;;;;;;;;;;;;;;;;5070740;28;20342;-85
2024/01/30 02:15:52;;;;;;;;;;;;;;;;;;5069807;28;20341;-85
2024/01/30 02:18:18;;;;;;;;;;;;;;;;;;5066717;28;19916;-85
2024/01/30 02:20:44;;;;;;;;;;;;;;;;;;5070469;28;19921;-85
2024/01/30 02:23:10;;;;;;;;;;;;;;;;;;5070151;28;20352;-85
2024/01/30 02:25:36;;;;;;;;;;;;;;;;;;5069807;28;19920;-85
2024/01/30 02:28:01;;;;;;;;;;;;;;;;;;5066048;28;19913;-85
2024/01/30 02:30:27;;;;;;;;;;;;;;;;;;5069914;28;19912;-83
2024/01/30 02:32:53;;;;;;;;;;;;;;;;;;5072110;28;19916;-83
2024/01/30 02:35:19;;;;;;;;;;;;;;;;;;5069697;28;19921;-85
2024/01/30 02:37:45;;;;;;;;;;;;;;;;;;5069605;28;19955;-85
2024/01/30 02:40:11;;;;;;;;;;;;;;;;;;5072335;28;19934;-85
2024/01/30 02:42:37;;;;;;;;;;;;;;;;;;5070117;28;19909;-84
2024/01/30 02:45:02;;;;;;;;;;;;;;;;;;5075750;28;19999;-85
2024/01/30 02:47:28;;;;;;;;;;;;;;;;;;5074157;28;19916;-85
2024/01/30 02:49:54;;;;;;;;;;;;;;;;;;5074411;28;19916;-84
2024/01/30 02:52:20;;;;;;;;;;;;;;;;;;5074571;28;19940;-85
2024/01/30 02:54:46;;;;;;;;;;;;;;;;;;5072533;28;20388;-84
2024/01/30 02:57:12;;;;;;;;;;;;;;;;;;5073224;28;19913;-83
2024/01/30 02:59:38;;;;;;;;;;;;;;;;;;5071526;28;19913;-85
2024/01/30 03:02:04;;;;;;;;;;;;;;;;;;5071269;28;19919;-85
2024/01/30 03:04:30;;;;;;;;;;;;;;;;;;5072862;28;19924;-84
2024/01/30 03:06:55;;;;;;;;;;;;;;;;;;5074046;28;20016;-85
2024/01/30 03:09:21;;;;;;;;;;;;;;;;;;5073974;28;19986;-85
2024/01/30 03:11:47;;;;;;;;;;;;;;;;;;5071927;28;19913;-85
2024/01/30 03:14:13;;;;;;;;;;;;;;;;;;5076585;28;19935;-85
2024/01/30 03:16:39;;;;;;;;;;;;;;;;;;5080371;28;19923;-85
2024/01/30 03:19:05;;;;;;;;;;;;;;;;;;5080071;28;19913;-85
2024/01/30 03:21:31;;;;;;;;;;;;;;;;;;5078861;28;19916;-85
2024/01/30 03:23:56;;;;;;;;;;;;;;;;;;5079142;28;19912;-84
2024/01/30 03:26:22;;;;;;;;;;;;;;;;;;5070534;28;19976;-85
2024/01/30 03:28:48;;;;;;;;;;;;;;;;;;5072554;28;19917;-85
2024/01/30 03:31:14;;;;;;;;;;;;;;;;;;5070756;28;20363;-84
2024/01/30 03:33:40;;;;;;;;;;;;;;;;;;5069003;28;19938;-85
2024/01/30 03:36:06;;;;;;;;;;;;;;;;;;5068978;28;19920;-85
2024/01/30 03:38:34;;;;;;;;;;;;;;;;;;5071131;28;19920;-84
2024/01/30 03:41:00;;;;;;;;;;;;;;;;;;5062316;28;20014;-85
2024/01/30 03:43:26;;;;;;;;;;;;;;;;;;5072911;28;20392;-85
2024/01/30 03:45:52;;;;;;;;;;;;;;;;;;5072691;28;19920;-84
2024/01/30 03:48:18;;;;;;;;;;;;;;;;;;5072813;28;19912;-85
2024/01/30 03:50:43;;;;;;;;;;;;;;;;;;5076702;28;19966;-85
2024/01/30 03:53:09;;;;;;;;;;;;;;;;;;5077339;28;20398;-85
2024/01/30 03:55:35;;;;;;;;;;;;;;;;;;5078007;28;19920;-85
2024/01/30 03:58:01;;;;;;;;;;;;;;;;;;5077378;28;19963;-82
2024/01/30 04:00:27;;;;;;;;;;;;;;;;;;5076337;28;19921;-85
2024/01/30 04:02:53;;;;;;;;;;;;;;;;;;5076033;28;19920;-85
2024/01/30 04:05:18;;;;;;;;;;;;;;;;;;5078823;28;19921;-85
2024/01/30 04:07:44;;;;;;;;;;;;;;;;;;5077756;28;19924;-82
2024/01/30 04:10:10;;;;;;;;;;;;;;;;;;5078671;28;19913;-85
2024/01/30 04:12:36;;;;;;;;;;;;;;;;;;5078730;28;19919;-85
2024/01/30 04:15:02;;;;;;;;;;;;;;;;;;5078918;28;19917;-85
2024/01/30 04:17:28;;;;;;;;;;;;;;;;;;5073142;28;19973;-83
2024/01/30 04:19:54;;;;;;;;;;;;;;;;;;5078919;28;19934;-85
2024/01/30 04:22:20;;;;;;;;;;;;;;;;;;5077208;28;19967;-85
2024/01/30 04:24:46;;;;;;;;;;;;;;;;;;5073516;28;19994;-85
2024/01/30 04:27:12;;;;;;;;;;;;;;;;;;5076899;28;19927;-85
2024/01/30 04:29:38;;;;;;;;;;;;;;;;;;5074681;28;19913;-85
2024/01/30 04:32:04;;;;;;;;;;;;;;;;;;5073653;28;19920;-85
2024/01/30 04:34:29;;;;;;;;;;;;;;;;;;5073576;28;20324;-85
2024/01/30 04:36:55;;;;;;;;;;;;;;;;;;5074482;28;19912;-85
2024/01/30 04:39:21;;;;;;;;;;;;;;;;;;5074425;28;20382;-85
2024/01/30 04:41:48;;;;;;;;;;;;;;;;;;5072196;28;19912;-85
2024/01/30 04:44:14;;;;;;;;;;;;;;;;;;5071428;28;20595;-85
2024/01/30 04:46:40;;;;;;;;;;;;;;;;;;5069117;28;19951;-85
2024/01/30 04:49:07;;;;;;;;;;;;;;;;;;5071816;28;19913;-83
2024/01/30 04:51:33;;;;;;;;;;;;;;;;;;5071566;28;20362;-82
2024/01/30 04:53:59;;;;;;;;;;;;;;;;;;5068676;28;19917;-85
2024/01/30 04:56:25;;;;;;;;;;;;;;;;;;5072411;28;20383;-85
2024/01/30 04:58:50;;;;;;;;;;;;;;;;;;5074901;28;20287;-85
2024/01/30 05:01:16;;;;;;;;;;;;;;;;;;5074589;28;20471;-85
2024/01/30 05:03:42;;;;;;;;;;;;;;;;;;5072323;28;19952;-85
2024/01/30 05:06:08;;;;;;;;;;;;;;;;;;5065340;28;19920;-85
2024/01/30 05:08:36;;;;;;;;;;;;;;;;;;5075139;28;19948;-85
2024/01/30 05:11:03;;;;;;;;;;;;;;;;;;5071545;28;19919;-85
2024/01/30 05:13:29;;;;;;;;;;;;;;;;;;5073781;28;19920;-85
2024/01/30 05:15:55;;;;;;;;;;;;;;;;;;5072378;28;19916;-86
2024/01/30 05:18:20;;;;;;;;;;;;;;;;;;5079124;28;20007;-85
2024/01/30 05:20:46;;;;;;;;;;;;;;;;;;5076887;28;19913;-85
2024/01/30 05:23:12;;;;;;;;;;;;;;;;;;5076352;28;20467;-85
2024/01/30 05:25:38;;;;;;;;;;;;;;;;;;5066425;28;19916;-83
2024/01/30 05:28:04;;;;;;;;;;;;;;;;;;5073255;28;20420;-82
2024/01/30 05:30:30;;;;;;;;;;;;;;;;;;5076107;28;19916;-83
2024/01/30 05:32:56;;;;;;;;;;;;;;;;;;5071987;28;20370;-86
2024/01/30 05:35:22;;;;;;;;;;;;;;;;;;5069673;28;19958;-84
2024/01/30 05:37:47;;;;;;;;;;;;;;;;;;5071412;28;19909;-85
2024/01/30 05:40:13;;;;;;;;;;;;;;;;;;5072259;28;20442;-85
2024/01/30 05:42:39;;;;;;;;;;;;;;;;;;5070545;28;19916;-85
2024/01/30 05:45:05;;;;;;;;;;;;;;;;;;5073441;28;19912;-81
2024/01/30 05:47:31;;;;;;;;;;;;;;;;;;5061065;28;21904;-83
2024/01/30 05:49:57;;;;;;;;;;;;;;;;;;5056610;28;19986;-83
2024/01/30 05:52:23;;;;;;;;;;;;;;;;;;5059932;28;19913;-82
2024/01/30 05:54:48;;;;;;;;;;;;;;;;;;5058588;28;19925;-82
2024/01/30 05:57:14;;;;;;;;;;;;;;;;;;5060178;28;19939;-83
2024/01/30 05:59:40;;;;;;;;;;;;;;;;;;5063759;28;20374;-81
2024/01/30 06:02:06;;;;;;;;;;;;;;;;;;5067953;28;19922;-85
2024/01/30 06:04:32;;;;;;;;;;;;;;;;;;5070226;28;19963;-84
2024/01/30 06:07:01;;;;;;;;;;;;;;;;;;5075651;28;19912;-85
2024/01/30 06:09:27;;;;;;;;;;;;;;;;;;5069896;28;19912;-85
2024/01/30 06:11:53;;;;;;;;;;;;;;;;;;5070707;28;19927;-85
2024/01/30 06:14:19;;;;;;;;;;;;;;;;;;5069678;28;19917;-85
2024/01/30 06:16:45;;;;;;;;;;;;;;;;;;5073050;28;19973;-86
2024/01/30 06:19:32;;;;;;;;;;;;;;;;;;5072382;28;19912;-87
2024/01/30 06:21:58;;;;;;;;;;;;;;;;;;5078484;28;19958;-84
2024/01/30 06:24:33;;;;;;;;;;;;;;;;;;5054684;28;19913;-85
2024/01/30 06:29:51;;;;;;;;;;;;;;;;;;5047039;28;19912;-84
2024/01/30 06:40:45;;;;;;;;;;;;;;;;;;5005601;28;19946;-88
2024/01/30 06:43:14;;;;;;;;;;;;;;;;;;5070103;28;19913;-86
2024/01/30 06:45:40;;;;;;;;;;;;;;;;;;5059623;28;19931;-84
2024/01/30 06:48:06;;;;;;;;;;;;;;;;;;5069571;28;19919;-85
2024/01/30 06:50:31;;;;;;;;;;;;;;;;;;5069608;28;19913;-85
2024/01/30 06:52:57;;;;;;;;;;;;;;;;;;5069506;28;19991;-85
2024/01/30 06:55:24;;;;;;;;;;;;;;;;;;5069556;28;20366;-85
2024/01/30 06:57:50;;;;;;;;;;;;;;;;;;5069478;28;19995;-85
2024/01/30 07:00:16;;;;;;;;;;;;;;;;;;5069845;28;19951;-85
2024/01/30 07:02:42;;;;;;;;;;;;;;;;;;5066395;28;19999;-85
2024/01/30 07:05:07;;;;;;;;;;;;;;;;;;5061687;28;20434;-85
2024/01/30 07:07:33;;;;;;;;;;;;;;;;;;5064433;28;19912;-85
2024/01/30 07:09:59;;;;;;;;;;;;;;;;;;5069049;28;19920;-86
2024/01/30 07:12:25;;;;;;;;;;;;;;;;;;5060625;28;19966;-85
2024/01/30 07:14:51;;;;;;;;;;;;;;;;;;5069128;28;20038;-84
2024/01/30 07:17:17;;;;;;;;;;;;;;;;;;5064422;28;20386;-85
2024/01/30 07:19:43;;;;;;;;;;;;;;;;;;5066541;28;19951;-85
2024/01/30 07:22:09;;;;;;;;;;;;;;;;;;5068910;28;19912;-85
2024/01/30 07:24:35;;;;;;;;;;;;;;;;;;5066940;28;19913;-84
2024/01/30 07:27:01;;;;;;;;;;;;;;;;;;5069839;28;19943;-86
2024/01/30 07:29:26;;;;;;;;;;;;;;;;;;5069779;28;20001;-86
2024/01/30 07:31:52;;;;;;;;;;;;;;;;;;5068865;28;19917;-85
2024/01/30 07:34:18;;;;;;;;;;;;;;;;;;5069534;28;19918;-85
2024/01/30 07:36:44;;;;;;;;;;;;;;;;;;5053935;28;20009;-86
2024/01/30 07:39:10;;;;;;;;;;;;;;;;;;5077710;28;19930;-85
2024/01/30 07:41:36;;;;;;;;;;;;;;;;;;5077857;28;19908;-86
2024/01/30 07:44:02;;;;;;;;;;;;;;;;;;5068652;28;20365;-85
2024/01/30 07:46:28;;;;;;;;;;;;;;;;;;5073991;28;19981;-86
2024/01/30 07:48:55;;;;;;;;;;;;;;;;;;5072442;28;20385;-85
2024/01/30 07:51:21;;;;;;;;;;;;;;;;;;5078899;28;19916;-84
2024/01/30 07:53:47;;;;;;;;;;;;;;;;;;5061788;28;19925;-85
2024/01/30 07:56:13;;;;;;;;;;;;;;;;;;5068474;28;19908;-85
2024/01/30 07:58:39;;;;;;;;;;;;;;;;;;5069390;28;19916;-85
2024/01/30 08:01:05;;;;;;;;;;;;;;;;;;5074019;28;19912;-85
2024/01/30 08:03:30;;;;;;;;;;;;;;;;;;5072896;28;19919;-85
2024/01/30 08:05:56;;;;;;;;;;;;;;;;;;5082112;28;19920;-85
2024/01/30 08:08:22;;;;;;;;;;;;;;;;;;5081645;28;19971;-85
2024/01/30 08:10:49;;;;;;;;;;;;;;;;;;5059925;28;19915;-85
2024/01/30 08:13:14;;;;;;;;;;;;;;;;;;5061531;28;19916;-86
2024/01/30 08:15:40;;;;;;;;;;;;;;;;;;5071899;28;19912;-86
2024/01/30 08:18:07;;;;;;;;;;;;;;;;;;5082664;28;19913;-86
2024/01/30 08:20:32;;;;;;;;;;;;;;;;;;5076486;28;19942;-86
2024/01/30 08:23:00;;;;;;;;;;;;;;;;;;5084514;28;19912;-86
2024/01/30 08:25:26;;;;;;;;;;;;;;;;;;5072685;28;20007;-86
2024/01/30 08:27:51;;;;;;;;;;;;;;;;;;5069095;28;20665;-86
2024/01/30 08:30:17;;;;;;;;;;;;;;;;;;5076885;28;19996;-87
2024/01/30 08:32:43;;;;;;;;;;;;;;;;;;5078904;28;19916;-85
2024/01/30 08:35:09;;;;;;;;;;;;;;;;;;5081865;28;19916;-90
2024/01/30 08:37:35;;;;;;;;;;;;;;;;;;5079402;28;19913;-84
2024/01/30 08:40:03;;;;;;;;;;;;;;;;;;5074419;28;19912;-85
2024/01/30 08:42:29;;;;;;;;;;;;;;;;;;5074697;28;19943;-85
2024/01/30 08:44:56;;;;;;;;;;;;;;;;;;5061724;28;20266;-88
2024/01/30 08:47:21;;;;;;;;;;;;;;;;;;5076063;28;19924;-88
2024/01/30 08:49:47;;;;;;;;;;;;;;;;;;5079310;28;19912;-87
2024/01/30 08:52:13;;;;;;;;;;;;;;;;;;5076117;28;20006;-90
2024/01/30 08:54:39;;;;;;;;;;;;;;;;;;5075823;28;19963;-91
2024/01/30 08:57:05;;;;;;;;;;;;;;;;;;5074949;28;20347;-91
2024/01/30 08:59:31;;;;;;;;;;;;;;;;;;5060759;28;19909;-90
2024/01/30 09:01:58;;;;;;;;;;;;;;;;;;5073825;28;19909;-90
2024/01/30 09:04:24;;;;;;;;;;;;;;;;;;5061475;28;19916;-93
2024/01/30 09:06:50;;;;;;;;;;;;;;;;;;5072701;28;19920;-91
2024/01/30 09:09:16;;;;;;;;;;;;;;;;;;5071879;28;20432;-87
2024/01/30 09:11:41;;;;;;;;;;;;;;;;;;5071557;28;19917;-88
2024/01/30 09:14:07;;;;;;;;;;;;;;;;;;5074081;28;19908;-87
2024/01/30 09:16:34;;;;;;;;;;;;;;;;;;5073838;28;19912;-90
2024/01/30 09:18:59;;;;;;;;;;;;;;;;;;5079589;28;19915;-91
2024/01/30 09:21:25;;;;;;;;;;;;;;;;;;5081540;28;20313;-90
2024/01/30 09:23:51;;;;;;;;;;;;;;;;;;5089489;28;19908;-90
2024/01/30 09:26:17;;;;;;;;;;;;;;;;;;5073166;28;20007;-89
2024/01/30 09:28:43;;;;;;;;;;;;;;;;;;5074255;28;19912;-91
2024/01/30 09:31:09;;;;;;;;;;;;;;;;;;5082672;28;19912;-86
2024/01/30 09:33:36;;;;;;;;;;;;;;;;;;5082754;28;19909;-87
2024/01/30 09:36:02;;;;;;;;;;;;;;;;;;5073202;28;19920;-90
2024/01/30 09:38:28;;;;;;;;;;;;;;;;;;5075768;28;19919;-84
2024/01/30 09:40:54;;;;;;;;;;;;;;;;;;5072310;28;19908;-89
2024/01/30 09:43:20;;;;;;;;;;;;;;;;;;5075821;28;19912;-85
2024/01/30 09:45:47;;;;;;;;;;;;;;;;;;5078842;28;20475;-85
2024/01/30 09:48:12;;;;;;;;;;;;;;;;;;5071995;28;19930;-88
2024/01/30 09:50:38;;;;;;;;;;;;;;;;;;5066282;28;20324;-85
2024/01/30 09:53:04;;;;;;;;;;;;;;;;;;5069060;28;19990;-85
2024/01/30 09:55:30;;;;;;;;;;;;;;;;;;5072664;28;19999;-84
2024/01/30 09:57:56;;;;;;;;;;;;;;;;;;5069627;28;19912;-85
2024/01/30 10:00:26;;;;;;;;;;;;;;;;;;5078183;28;19912;-85
2024/01/30 10:02:52;;;;;;;;;;;;;;;;;;5073536;28;19973;-84
2024/01/30 10:05:18;;;;;;;;;;;;;;;;;;5070001;28;19964;-84
2024/01/30 10:07:44;;;;;;;;;;;;;;;;;;5065514;28;19916;-85
2024/01/30 10:10:10;;;;;;;;;;;;;;;;;;5063456;28;19923;-83
2024/01/30 10:12:36;;;;;;;;;;;;;;;;;;5058066;28;20019;-84
2024/01/30 10:15:02;;;;;;;;;;;;;;;;;;5075482;28;19969;-84
2024/01/30 10:17:28;;;;;;;;;;;;;;;;;;5079921;28;19956;-84
2024/01/30 10:19:54;;;;;;;;;;;;;;;;;;5070652;28;19959;-87
2024/01/30 10:22:20;;;;;;;;;;;;;;;;;;5069909;28;19922;-87
2024/01/30 10:24:45;;;;;;;;;;;;;;;;;;5068699;28;19924;-88
2024/01/30 10:27:11;;;;;;;;;;;;;;;;;;5068754;28;19916;-87
2024/01/30 10:29:37;;;;;;;;;;;;;;;;;;5072172;28;20001;-90
2024/01/30 10:32:03;;;;;;;;;;;;;;;;;;5074176;28;20362;-90
2024/01/30 10:34:29;;;;;;;;;;;;;;;;;;5072346;28;19912;-90
2024/01/30 10:36:55;;;;;;;;;;;;;;;;;;5071356;28;20472;-87
2024/01/30 10:39:21;;;;;;;;;;;;;;;;;;5069063;28;19957;-90
2024/01/30 10:41:46;;;;;;;;;;;;;;;;;;5059982;28;19921;-90
2024/01/30 10:44:13;;;;;;;;;;;;;;;;;;5063961;28;19960;-91
2024/01/30 10:46:39;;;;;;;;;;;;;;;;;;5073096;28;19913;-90
2024/01/30 10:49:06;;;;;;;;;;;;;;;;;;5069276;28;20304;-89
2024/01/30 10:51:32;;;;;;;;;;;;;;;;;;5063290;28;19912;-89
2024/01/30 10:53:57;;;;;;;;;;;;;;;;;;5057159;28;19999;-90
2024/01/30 10:56:23;;;;;;;;;;;;;;;;;;5068204;28;19909;-90
2024/01/30 10:58:49;;;;;;;;;;;;;;;;;;5070354;28;20023;-89
2024/01/30 11:01:15;;;;;;;;;;;;;;;;;;5066841;28;19912;-90
2024/01/30 11:03:41;;;;;;;;;;;;;;;;;;5062822;28;19917;-91
2024/01/30 11:06:07;;;;;;;;;;;;;;;;;;5068936;28;19929;-90
2024/01/30 11:08:33;;;;;;;;;;;;;;;;;;5063279;28;19920;-91
2024/01/30 11:10:59;;;;;;;;;;;;;;;;;;5068441;28;19916;-90
2024/01/30 11:13:25;;;;;;;;;;;;;;;;;;5066405;28;19913;-90
2024/01/30 11:15:51;;;;;;;;;;;;;;;;;;5063209;28;19912;-92
2024/01/30 11:18:16;;;;;;;;;;;;;;;;;;5065021;28;19912;-92
2024/01/30 11:20:45;;;;;;;;;;;;;;;;;;5062090;28;19912;-93
2024/01/30 11:23:11;;;;;;;;;;;;;;;;;;5072087;28;19912;-93
2024/01/30 11:25:37;;;;;;;;;;;;;;;;;;5076321;28;19916;-93
2024/01/30 11:28:03;;;;;;;;;;;;;;;;;;5077999;28;20275;-89
2024/01/30 11:30:29;;;;;;;;;;;;;;;;;;5072039;28;19938;-87
2024/01/30 11:32:57;;;;;;;;;;;;;;;;;;5077260;28;20376;-95
2024/01/30 11:35:24;;;;;;;;;;;;;;;;;;5075760;28;19912;-95
2024/01/30 11:37:49;;;;;;;;;;;;;;;;;;5076985;28;19916;-92
2024/01/30 11:40:15;;;;;;;;;;;;;;;;;;5080095;28;19972;-94
2024/01/30 11:42:41;;;;;;;;;;;;;;;;;;5083137;28;19913;-95
2024/01/30 11:45:07;;;;;;;;;;;;;;;;;;5081305;28;19966;-92
2024/01/30 11:47:37;;;;;;;;;;;;;;;;;;5078463;28;19915;-94
2024/01/30 11:50:03;;;;;;;;;;;;;;;;;;5081301;28;19917;-92
2024/01/30 11:52:29;;;;;;;;;;;;;;;;;;5085976;28;20008;-93
2024/01/30 11:54:55;;;;;;;;;;;;;;;;;;5088228;28;19920;-95
2024/01/30 11:57:21;;;;;;;;;;;;;;;;;;5085217;28;19936;-93
2024/01/30 12:02:23;;;;;;;;;;;;;;;;;;5279415;22;19924;-92
2024/01/30 12:04:48;;;;;;;;;;;;;;;;;;5074820;28;19917;-94
2024/01/30 12:07:16;;;;;;;;;;;;;;;;;;5073763;28;20623;-90
2024/01/30 12:09:42;;;;;;;;;;;;;;;;;;5082436;28;19912;-93
2024/01/30 12:12:11;;;;;;;;;;;;;;;;;;5293811;22;21077;-95
2024/01/30 12:14:38;;;;;;;;;;;;;;;;;;5174451;22;19976;-93
2024/01/30 12:17:04;;;;;;;;;;;;;;;;;;5035316;28;19913;-93
2024/01/30 12:19:30;;;;;;;;;;;;;;;;;;5037591;28;19917;-94
2024/01/30 12:21:56;;;;;;;;;;;;;;;;;;5036696;28;20394;-93
2024/01/30 12:24:22;;;;;;;;;;;;;;;;;;5040114;28;19913;-90
2024/01/30 12:26:56;;;;;;;;;;;;;;;;;;5039276;28;19894;-92
2024/01/30 12:29:22;;;;;;;;;;;;;;;;;;5320264;22;20071;-91
2024/01/30 12:31:48;;;;;;;;;;;;;;;;;;5040526;28;19932;-92
2024/01/30 12:36:50;;;;;;;;;;;;;;;;;;5772687;23;19931;-92
2024/01/30 12:39:16;;;;;;;;;;;;;;;;;;5023267;22;19943;-83
2024/01/30 12:41:42;;;;;;;;;;;;;;;;;;5100295;28;19924;-92
2024/01/30 12:44:08;;;;;;;;;;;;;;;;;;5641007;22;20303;-91
2024/01/30 12:46:36;;;;;;;;;;;;;;;;;;5071215;28;19924;-89
2024/01/30 12:49:05;;;;;;;;;;;;;;;;;;5354490;22;19933;-93
2024/01/30 12:51:34;;;;;;;;;;;;;;;;;;5219438;22;19932;-94
2024/01/30 12:54:03;;;;;;;;;;;;;;;;;;5088658;28;19943;-93
2024/01/30 12:56:36;;;;;;;;;;;;;;;;;;5102067;28;19960;-93
2024/01/30 12:59:04;;;;;;;;;;;;;;;;;;5104722;22;19943;-94
2024/01/30 13:01:29;;;;;;;;;;;;;;;;;;5089927;28;20097;-94
2024/01/30 13:06:40;;;;;;;;;;;;;;;;;;5434365;22;19930;-93
2024/01/30 13:09:06;;;;;;;;;;;;;;;;;;5088995;28;19927;-91
2024/01/30 13:11:32;;;;;;;;;;;;;;;;;;5077579;28;20410;-89
2024/01/30 13:13:58;;;;;;;;;;;;;;;;;;5077724;28;20380;-91
2024/01/30 13:16:24;;;;;;;;;;;;;;;;;;5077265;28;19909;-88
2024/01/30 13:18:50;;;;;;;;;;;;;;;;;;5079834;28;19956;-87
2024/01/30 13:21:16;;;;;;;;;;;;;;;;;;5075604;28;19915;-87
2024/01/30 13:23:45;;;;;;;;;;;;;;;;;;5079667;28;19916;-92
2024/01/30 13:26:10;;;;;;;;;;;;;;;;;;5087767;28;19974;-90
2024/01/30 13:28:39;;;;;;;;;;;;;;;;;;5083771;28;19921;-93
2024/01/30 13:31:06;;;;;;;;;;;;;;;;;;5072375;28;19992;-90
2024/01/30 13:33:32;;;;;;;;;;;;;;;;;;5076791;28;19970;-91
2024/01/30 13:35:58;;;;;;;;;;;;;;;;;;5081488;28;19917;-91
2024/01/30 13:38:24;;;;;;;;;;;;;;;;;;5084314;28;19909;-89
2024/01/30 13:51:08;;;;;;;;;;;;;;;;;;5522036;22;20973;-91
2024/01/30 13:53:34;;;;;;;;;;;;;;;;;;5095083;28;19900;-92
2024/01/30 13:56:00;;;;;;;;;;;;;;;;;;5096556;28;19955;-90
2024/01/30 14:01:02;;;;;;;;;;;;;;;;;;5346879;22;19987;-89
2024/01/30 14:03:30;;;;;;;;;;;;;;;;;;5076597;28;20098;-91
2024/01/30 14:18:55;;;;;;;;;;;;;;;;;;5328108;22;19943;-91
2024/01/30 14:26:35;;;;;;;;;;;;;;;;;;5788617;22;19925;-92
2024/01/30 14:29:07;;;;;;;;;;;;;;;;;;5087261;28;20062;-91
2024/01/30 14:34:10;;;;;;;;;;;;;;;;;;5127460;22;19924;-91
2024/01/30 14:39:09;;;;;;;;;;;;;;;;;;5076837;28;19925;-94
2024/01/30 14:41:35;;;;;;;;;;;;;;;;;;5078317;28;19943;-90
2024/01/30 14:44:01;;;;;;;;;;;;;;;;;;5082197;28;19928;-90
2024/01/30 14:46:27;;;;;;;;;;;;;;;;;;5083094;28;19924;-92
2024/01/30 14:48:53;;;;;;;;;;;;;;;;;;5082198;28;19916;-93
2024/01/30 14:51:18;;;;;;;;;;;;;;;;;;5081760;28;20353;-93
2024/01/30 14:53:44;;;;;;;;;;;;;;;;;;5078128;28;19912;-87
2024/01/30 14:56:10;;;;;;;;;;;;;;;;;;5081807;28;19917;-94
2024/01/30 14:58:36;;;;;;;;;;;;;;;;;;5086354;28;19920;-88
2024/01/30 15:01:02;;;;;;;;;;;;;;;;;;5081384;28;19943;-85
2024/01/30 15:03:39;;;;;;;;;;;;;;;;;;5079859;28;19959;-92
2024/01/30 15:06:05;;;;;;;;;;;;;;;;;;5074962;28;21194;-83
2024/01/30 15:08:31;;;;;;;;;;;;;;;;;;5075466;28;19970;-89
2024/01/30 15:10:57;;;;;;;;;;;;;;;;;;5080516;28;19912;-92
2024/01/30 15:13:23;;;;;;;;;;;;;;;;;;5082007;28;19912;-92
2024/01/30 15:15:49;;;;;;;;;;;;;;;;;;5088882;28;20001;-93
2024/01/30 15:18:18;;;;;;;;;;;;;;;;;;5087350;28;19909;-94
2024/01/30 15:20:44;;;;;;;;;;;;;;;;;;5079415;28;19956;-83
2024/01/30 15:23:10;;;;;;;;;;;;;;;;;;5082365;28;19920;-93
2024/01/30 15:25:36;;;;;;;;;;;;;;;;;;5085460;28;19993;-92
2024/01/30 15:28:02;;;;;;;;;;;;;;;;;;5083160;28;19921;-84
2024/01/30 15:30:28;;;;;;;;;;;;;;;;;;5087581;28;19959;-94
2024/01/30 15:32:54;;;;;;;;;;;;;;;;;;5088404;28;19916;-92
2024/01/30 15:35:20;;;;;;;;;;;;;;;;;;5083075;28;20211;-91
2024/01/30 15:37:46;;;;;;;;;;;;;;;;;;5088289;28;19946;-91
2024/01/30 15:40:12;;;;;;;;;;;;;;;;;;5084701;28;19956;-89
2024/01/30 15:42:38;;;;;;;;;;;;;;;;;;5079528;28;19918;-90
2024/01/30 15:45:06;;;;;;;;;;;;;;;;;;5077075;28;19927;-87
2024/01/30 15:47:33;;;;;;;;;;;;;;;;;;5073990;28;19976;-88
2024/01/30 15:49:58;;;;;;;;;;;;;;;;;;5079273;28;19913;-92
2024/01/30 15:52:24;;;;;;;;;;;;;;;;;;5078350;28;20007;-86
2024/01/30 15:54:50;;;;;;;;;;;;;;;;;;5073078;28;20362;-91
2024/01/30 15:57:16;;;;;;;;;;;;;;;;;;5072246;28;19939;-83
2024/01/30 15:59:42;;;;;;;;;;;;;;;;;;5075052;28;19912;-93
2024/01/30 16:02:08;;;;;;;;;;;;;;;;;;5079020;28;19924;-93
2024/01/30 16:04:34;;;;;;;;;;;;;;;;;;5080620;28;19912;-93
2024/01/30 16:06:59;;;;;;;;;;;;;;;;;;5064333;28;19935;-92
2024/01/30 16:09:25;;;;;;;;;;;;;;;;;;5079149;28;19924;-92
2024/01/30 16:11:51;;;;;;;;;;;;;;;;;;5078499;28;19916;-94
2024/01/30 16:14:17;;;;;;;;;;;;;;;;;;5069343;28;19999;-93
2024/01/30 16:16:43;;;;;;;;;;;;;;;;;;5071777;28;20003;-92
2024/01/30 16:19:09;;;;;;;;;;;;;;;;;;5075550;28;19920;-92
2024/01/30 16:21:35;;;;;;;;;;;;;;;;;;5074018;28;20259;-92
2024/01/30 16:24:03;;;;;;;;;;;;;;;;;;5078079;28;19927;-94
2024/01/30 16:26:31;;;;;;;;;;;;;;;;;;5077100;28;19920;-91
2024/01/30 16:29:00;;;;;;;;;;;;;;;;;;5071285;28;20015;-93
2024/01/30 16:31:26;;;;;;;;;;;;;;;;;;5068909;28;19919;-92
2024/01/30 16:33:52;;;;;;;;;;;;;;;;;;5074338;28;20011;-90
2024/01/30 16:36:17;;;;;;;;;;;;;;;;;;5072689;28;19913;-91
2024/01/30 16:38:43;;;;;;;;;;;;;;;;;;5074959;28;20370;-91
2024/01/30 16:41:09;;;;;;;;;;;;;;;;;;5073102;28;20019;-94
2024/01/30 16:43:35;;;;;;;;;;;;;;;;;;5079301;28;19920;-90
2024/01/30 16:46:04;;;;;;;;;;;;;;;;;;5067287;28;19971;-92
2024/01/30 16:48:30;;;;;;;;;;;;;;;;;;5082121;28;19913;-94
2024/01/30 16:51:08;;;;;;;;;;;;;;;;;;5083287;28;19923;-93
2024/01/30 16:53:36;;;;;;;;;;;;;;;;;;5071284;28;19916;-92
2024/01/30 16:56:01;;;;;;;;;;;;;;;;;;5069803;28;19920;-91
2024/01/30 16:58:30;;;;;;;;;;;;;;;;;;5076054;28;19927;-95
2024/01/30 17:01:06;;;;;;;;;;;;;;;;;;;;;
2024/01/30 17:03:43;;;;;;;;;;;;;;;;;;5069160;28;20010;-94
2024/01/30 17:06:09;;;;;;;;;;;;;;;;;;5074381;28;19931;-93
2024/01/30 17:08:34;;;;;;;;;;;;;;;;;;5076912;28;20294;-92
2024/01/30 17:11:00;;;;;;;;;;;;;;;;;;5075028;28;19916;-90
2024/01/30 17:13:28;;;;;;;;;;;;;;;;;;5083430;28;19913;-93
2024/01/30 17:15:57;;;;;;;;;;;;;;;;;;5074699;28;20011;-95
2024/01/30 17:18:23;;;;;;;;;;;;;;;;;;5079092;28;20236;-92
2024/01/30 17:20:49;;;;;;;;;;;;;;;;;;5072244;28;19931;-91
2024/01/30 17:23:15;;;;;;;;;;;;;;;;;;5079111;28;19909;-90
2024/01/30 17:25:41;;;;;;;;;;;;;;;;;;5073735;28;20284;-92
2024/01/30 17:28:07;;;;;;;;;;;;;;;;;;5077166;28;20354;-92
2024/01/30 17:30:34;;;;;;;;;;;;;;;;;;5068759;28;20005;-90
2024/01/30 17:33:00;;;;;;;;;;;;;;;;;;5063399;28;19913;-89
2024/01/30 17:35:26;;;;;;;;;;;;;;;;;;5072587;28;19912;-90